createdAt,value
2022-07-28T04:46:03.292Z,1006.79
2022-07-28T04:47:06.395Z,1006.80
2022-07-28T04:48:04.230Z,1006.80
2022-07-28T04:49:04.346Z,1006.81
2022-07-28T04:50:04.209Z,1006.82
2022-07-28T04:51:04.202Z,1006.84
2022-07-28T04:52:04.206Z,1006.83
2022-07-28T04:53:04.191Z,1006.84
2022-07-28T04:54:04.186Z,1006.83
2022-07-28T04:55:04.157Z,1006.83
2022-07-28T04:56:04.145Z,1006.83
2022-07-28T04:57:07.559Z,1006.82
2022-07-28T04:58:04.129Z,1006.82
2022-07-28T04:59:04.114Z,1006.83
2022-07-28T05:00:04.100Z,1006.83
2022-07-28T05:01:04.162Z,1006.82
2022-07-28T05:02:04.099Z,1006.82
2022-07-28T05:03:04.094Z,1006.80
2022-07-28T05:04:04.072Z,1006.80
2022-07-28T05:05:04.180Z,1006.79
2022-07-28T05:06:04.038Z,1006.79
2022-07-28T05:07:11.810Z,1006.78
2022-07-28T05:08:04.021Z,1006.77
2022-07-28T05:09:04.007Z,1006.76
2022-07-28T05:10:04.026Z,1006.75
2022-07-28T05:11:03.997Z,1006.74
2022-07-28T05:12:04.009Z,1006.72
2022-07-28T05:13:03.965Z,1006.72
2022-07-28T05:14:03.954Z,1006.70
2022-07-28T05:15:03.949Z,1006.70
2022-07-28T05:16:04.023Z,1006.69
2022-07-28T05:17:03.959Z,1006.68
2022-07-28T05:18:03.909Z,1006.67
2022-07-28T05:19:03.908Z,1006.67
2022-07-28T05:20:03.888Z,1006.67
2022-07-28T05:21:03.881Z,1006.69
2022-07-28T05:22:03.877Z,1006.70
2022-07-28T05:23:03.853Z,1006.71
2022-07-28T05:24:03.847Z,1006.71
2022-07-28T05:25:03.840Z,1006.72
2022-07-28T05:26:03.825Z,1006.72
2022-07-28T05:27:03.830Z,1006.70
2022-07-28T05:28:03.807Z,1006.70
2022-07-28T05:29:03.791Z,1006.70
2022-07-28T05:30:03.777Z,1006.71
2022-07-28T05:31:03.780Z,1006.72
2022-07-28T05:32:16.848Z,1006.73
2022-07-28T05:33:03.756Z,1006.75
2022-07-28T05:34:03.733Z,1006.76
2022-07-28T05:35:03.725Z,1006.77
2022-07-28T05:36:03.707Z,1006.78
2022-07-28T05:37:03.721Z,1006.79
2022-07-28T05:38:06.400Z,1006.78
2022-07-28T05:39:03.690Z,1006.79
2022-07-28T05:40:03.669Z,1006.79
2022-07-28T05:41:03.657Z,1006.79
2022-07-28T05:42:03.668Z,1006.80
2022-07-28T05:43:03.637Z,1006.81
2022-07-28T05:44:03.627Z,1006.81
2022-07-28T05:45:03.614Z,1006.81
2022-07-28T05:46:03.700Z,1006.81
2022-07-28T05:47:03.614Z,1006.80
2022-07-28T05:48:03.577Z,1006.79
2022-07-28T05:49:03.750Z,1006.79
2022-07-28T05:50:03.554Z,1006.80
2022-07-28T05:51:03.546Z,1006.81
2022-07-28T05:52:03.530Z,1006.82
2022-07-28T05:53:03.551Z,1006.83
2022-07-28T05:54:03.507Z,1006.85
2022-07-28T05:55:03.508Z,1006.87
2022-07-28T05:56:03.490Z,1006.87
2022-07-28T05:57:03.496Z,1006.88
2022-07-28T05:58:03.479Z,1006.87
2022-07-28T05:59:03.456Z,1006.86
2022-07-28T06:00:03.444Z,1006.86
2022-07-28T06:01:03.546Z,1006.86
2022-07-28T06:02:03.531Z,1006.85
2022-07-28T06:03:03.421Z,1006.85
2022-07-28T06:04:26.088Z,1006.85
2022-07-28T06:05:03.398Z,1006.84
2022-07-28T06:06:15.637Z,1006.83
2022-07-28T06:07:03.374Z,1006.82
2022-07-28T06:08:03.369Z,1006.82
2022-07-28T06:09:03.344Z,1006.84
2022-07-28T06:10:03.333Z,1006.85
2022-07-28T06:11:03.324Z,1006.87
2022-07-28T06:12:03.309Z,1006.88
2022-07-28T06:13:03.316Z,1006.88
2022-07-28T06:14:03.291Z,1006.89
2022-07-28T06:15:03.284Z,1006.89
2022-07-28T06:16:03.294Z,1006.88
2022-07-28T06:17:03.374Z,1006.89
2022-07-28T06:18:03.260Z,1006.89
2022-07-28T06:19:03.240Z,1006.91
2022-07-28T06:20:03.228Z,1006.89
2022-07-28T06:21:03.217Z,1006.89
2022-07-28T06:22:03.206Z,1006.89
2022-07-28T06:23:03.210Z,1006.91
2022-07-28T06:24:03.182Z,1006.91
2022-07-28T06:25:03.200Z,1006.91
2022-07-28T06:26:03.220Z,1006.90
2022-07-28T06:27:03.155Z,1006.89
2022-07-28T06:28:03.148Z,1006.88
2022-07-28T06:29:03.133Z,1006.87
2022-07-28T06:30:03.122Z,1006.85
2022-07-28T06:31:03.112Z,1006.85
2022-07-28T06:32:03.158Z,1006.85
2022-07-28T06:33:03.099Z,1006.83
2022-07-28T06:34:03.077Z,1006.84
2022-07-28T06:35:03.064Z,1006.83
2022-07-28T06:36:03.051Z,1006.82
2022-07-28T06:37:03.049Z,1006.82
2022-07-28T06:38:03.043Z,1006.83
2022-07-28T06:39:03.020Z,1006.85
2022-07-28T06:40:03.004Z,1006.85
2022-07-28T06:41:03.009Z,1006.83
2022-07-28T06:42:03.005Z,1006.84
2022-07-28T06:43:03.002Z,1006.86
2022-07-28T06:44:02.969Z,1006.85
2022-07-28T06:45:02.993Z,1006.86
2022-07-28T06:46:02.948Z,1006.87
2022-07-28T06:47:03.014Z,1006.86
2022-07-28T06:48:02.943Z,1006.85
2022-07-28T06:49:03.000Z,1006.86
2022-07-28T06:50:02.902Z,1006.85
2022-07-28T06:51:02.898Z,1006.85
2022-07-28T06:52:02.882Z,1006.85
2022-07-28T06:53:02.890Z,1006.85
2022-07-28T06:54:04.843Z,1006.86
2022-07-28T06:55:02.866Z,1006.86
2022-07-28T06:56:02.834Z,1006.85
2022-07-28T06:57:02.828Z,1006.86
2022-07-28T06:58:02.835Z,1006.87
2022-07-28T06:59:02.808Z,1006.86
2022-07-28T07:00:02.812Z,1006.87
2022-07-28T07:01:02.878Z,1006.86
2022-07-28T07:02:02.775Z,1006.86
2022-07-28T07:03:02.779Z,1006.85
2022-07-28T07:04:02.815Z,1006.85
2022-07-28T07:05:02.819Z,1006.85
2022-07-28T07:06:02.729Z,1006.86
2022-07-28T07:07:02.721Z,1006.85
2022-07-28T07:08:02.720Z,1006.84
2022-07-28T07:09:02.704Z,1006.82
2022-07-28T07:10:02.685Z,1006.82
2022-07-28T07:11:02.685Z,1006.81
2022-07-28T07:12:02.664Z,1006.81
2022-07-28T07:13:02.682Z,1006.82
2022-07-28T07:14:02.854Z,1006.79
2022-07-28T07:15:02.705Z,1006.83
2022-07-28T07:16:02.627Z,1006.84
2022-07-28T07:17:02.613Z,1006.82
2022-07-28T07:18:02.599Z,1006.83
2022-07-28T07:19:06.852Z,1006.82
2022-07-28T07:20:02.578Z,1006.81
2022-07-28T07:21:02.565Z,1006.80
2022-07-28T07:22:02.551Z,1006.78
2022-07-28T07:23:02.817Z,1006.80
2022-07-28T07:24:02.545Z,1006.79
2022-07-28T07:25:02.523Z,1006.79
2022-07-28T07:26:02.511Z,1006.80
2022-07-28T07:27:02.502Z,1006.82
2022-07-28T07:28:04.865Z,1006.84
2022-07-28T07:29:02.499Z,1006.83
2022-07-28T07:30:02.476Z,1006.83
2022-07-28T07:31:02.473Z,1006.84
2022-07-28T07:32:05.674Z,1006.83
2022-07-28T07:33:02.440Z,1006.82
2022-07-28T07:34:02.446Z,1006.82
2022-07-28T07:35:02.415Z,1006.83
2022-07-28T07:36:02.409Z,1006.84
2022-07-28T07:37:02.395Z,1006.83
2022-07-28T07:38:02.378Z,1006.80
2022-07-28T07:39:02.386Z,1006.81
2022-07-28T07:40:02.357Z,1006.80
2022-07-28T07:41:02.345Z,1006.78
2022-07-28T07:42:02.336Z,1006.78
2022-07-28T07:43:02.328Z,1006.77
2022-07-28T07:44:02.331Z,1006.77
2022-07-28T07:45:02.404Z,1006.79
2022-07-28T07:46:02.294Z,1006.78
2022-07-28T07:47:02.352Z,1006.81
2022-07-28T07:48:02.264Z,1006.80
2022-07-28T07:49:02.363Z,1006.79
2022-07-28T07:50:04.421Z,1006.80
2022-07-28T07:51:02.254Z,1006.79
2022-07-28T07:52:02.228Z,1006.78
2022-07-28T07:53:02.217Z,1006.79
2022-07-28T07:54:02.221Z,1006.79
2022-07-28T07:55:02.204Z,1006.80
2022-07-28T07:56:02.183Z,1006.80
2022-07-28T07:57:02.179Z,1006.78
2022-07-28T07:58:02.178Z,1006.79
2022-07-28T07:59:02.172Z,1006.76
2022-07-28T08:00:02.156Z,1006.74
2022-07-28T08:01:02.134Z,1006.74
2022-07-28T08:02:02.305Z,1006.73
2022-07-28T08:03:02.112Z,1006.71
2022-07-28T08:04:02.169Z,1006.70
2022-07-28T08:05:02.196Z,1006.68
2022-07-28T08:06:02.077Z,1006.70
2022-07-28T08:07:02.077Z,1006.70
2022-07-28T08:08:02.055Z,1006.67
2022-07-28T08:09:02.070Z,1006.66
2022-07-28T08:10:02.032Z,1006.65
2022-07-28T08:11:02.023Z,1006.63
2022-07-28T08:12:02.014Z,1006.63
2022-07-28T08:13:02.003Z,1006.61
2022-07-28T08:14:01.996Z,1006.61
2022-07-28T08:15:02.039Z,1006.62
2022-07-28T08:16:02.013Z,1006.62
2022-07-28T08:17:01.970Z,1006.60
2022-07-28T08:18:01.947Z,1006.60
2022-07-28T08:19:01.946Z,1006.61
2022-07-28T08:20:01.940Z,1006.59
2022-07-28T08:21:01.917Z,1006.59
2022-07-28T08:22:01.904Z,1006.57
2022-07-28T08:23:01.902Z,1006.57
2022-07-28T08:24:01.883Z,1006.59
2022-07-28T08:25:01.894Z,1006.60
2022-07-28T08:26:01.870Z,1006.59
2022-07-28T08:27:01.864Z,1006.60
2022-07-28T08:28:01.832Z,1006.62
2022-07-28T08:29:01.834Z,1006.60
2022-07-28T08:30:01.830Z,1006.59
2022-07-28T08:31:01.924Z,1006.59
2022-07-28T08:32:01.810Z,1006.54
2022-07-28T08:33:01.786Z,1006.57
2022-07-28T08:34:01.778Z,1006.56
2022-07-28T08:35:30.369Z,1006.56
2022-07-28T08:36:01.764Z,1006.59
2022-07-28T08:37:01.746Z,1006.55
2022-07-28T08:38:01.733Z,1006.54
2022-07-28T08:39:01.723Z,1006.56
2022-07-28T08:40:01.735Z,1006.57
2022-07-28T08:41:01.708Z,1006.56
2022-07-28T08:42:01.695Z,1006.54
2022-07-28T08:43:01.681Z,1006.55
2022-07-28T08:44:01.672Z,1006.54
2022-07-28T08:45:01.673Z,1006.53
2022-07-28T08:46:01.774Z,1006.54
2022-07-28T08:47:01.682Z,1006.54
2022-07-28T08:48:09.807Z,1006.51
2022-07-28T08:49:01.704Z,1006.47
2022-07-28T08:50:01.635Z,1006.46
2022-07-28T08:51:01.600Z,1006.45
2022-07-28T08:52:01.585Z,1006.47
2022-07-28T08:53:01.574Z,1006.47
2022-07-28T08:54:01.573Z,1006.47
2022-07-28T08:55:01.586Z,1006.49
2022-07-28T08:56:01.552Z,1006.47
2022-07-28T08:57:01.530Z,1006.47
2022-07-28T08:58:01.527Z,1006.48
2022-07-28T08:59:01.505Z,1006.48
2022-07-28T09:00:01.522Z,1006.45
2022-07-28T09:01:01.499Z,1006.49
2022-07-28T09:02:01.541Z,1006.47
2022-07-28T09:03:01.552Z,1006.51
2022-07-28T09:04:01.466Z,1006.51
2022-07-28T09:05:01.462Z,1006.49
2022-07-28T09:06:01.436Z,1006.46
2022-07-28T09:07:01.421Z,1006.49
2022-07-28T09:08:01.416Z,1006.51
2022-07-28T09:09:01.397Z,1006.48
2022-07-28T09:10:02.695Z,1006.45
2022-07-28T09:11:01.379Z,1006.40
2022-07-28T09:12:01.377Z,1006.39
2022-07-28T09:13:01.355Z,1006.36
2022-07-28T09:14:01.350Z,1006.39
2022-07-28T09:15:01.345Z,1006.39
2022-07-28T09:16:01.395Z,1006.40
2022-07-28T09:17:01.311Z,1006.41
2022-07-28T09:18:01.301Z,1006.37
2022-07-28T09:19:01.300Z,1006.34
2022-07-28T09:20:01.298Z,1006.32
2022-07-28T09:21:01.265Z,1006.29
2022-07-28T09:22:01.256Z,1006.29
2022-07-28T09:23:01.247Z,1006.28
2022-07-28T09:24:01.239Z,1006.24
2022-07-28T09:25:01.223Z,1006.26
2022-07-28T09:26:01.230Z,1006.25
2022-07-28T09:27:01.204Z,1006.26
2022-07-28T09:28:01.197Z,1006.27
2022-07-28T09:29:01.180Z,1006.27
2022-07-28T09:30:01.187Z,1006.21
2022-07-28T09:31:01.189Z,1006.23
2022-07-28T09:32:01.309Z,1006.17
2022-07-28T09:33:01.141Z,1006.14
2022-07-28T09:34:01.167Z,1006.08
2022-07-28T09:35:01.119Z,1006.14
2022-07-28T09:36:02.244Z,1006.18
2022-07-28T09:37:01.096Z,1006.17
2022-07-28T09:38:01.097Z,1006.17
2022-07-28T09:39:01.072Z,1006.16
2022-07-28T09:40:03.827Z,1006.16
2022-07-28T09:41:01.066Z,1006.12
2022-07-28T09:42:01.052Z,1006.10
2022-07-28T09:43:01.033Z,1006.11
2022-07-28T09:44:01.030Z,1006.14
2022-07-28T09:45:21.704Z,1006.18
2022-07-28T09:46:01.066Z,1006.20
2022-07-28T09:47:01.208Z,1006.19
2022-07-28T09:48:01.168Z,1006.18
2022-07-28T09:49:01.429Z,1006.16
2022-07-28T09:50:01.026Z,1006.14
2022-07-28T09:51:00.964Z,1006.12
2022-07-28T09:52:00.943Z,1006.12
2022-07-28T09:53:00.924Z,1006.12
2022-07-28T09:54:00.925Z,1006.10
2022-07-28T09:55:00.908Z,1006.10
2022-07-28T09:56:00.918Z,1006.09
2022-07-28T09:57:00.888Z,1006.05
2022-07-28T09:58:00.879Z,1006.13
2022-07-28T09:59:00.871Z,1006.15
2022-07-28T10:00:00.854Z,1006.17
2022-07-28T10:01:00.858Z,1006.18
2022-07-28T10:02:01.940Z,1006.16
2022-07-28T10:03:00.897Z,1006.10
2022-07-28T10:04:02.701Z,1006.17
2022-07-28T10:05:00.797Z,1006.12
2022-07-28T10:06:00.804Z,1006.09
2022-07-28T10:07:00.827Z,1006.03
2022-07-28T10:08:00.769Z,1006.05
2022-07-28T10:09:00.746Z,1006.08
2022-07-28T10:10:00.749Z,1006.08
2022-07-28T10:11:00.754Z,1006.08
2022-07-28T10:12:00.724Z,1006.08
2022-07-28T10:13:00.707Z,1006.07
2022-07-28T10:14:00.709Z,1006.05
2022-07-28T10:15:00.693Z,1006.04
2022-07-28T10:16:00.722Z,1006.02
2022-07-28T10:17:05.872Z,1006.00
2022-07-28T10:18:00.667Z,1005.94
2022-07-28T10:19:00.645Z,1005.94
2022-07-28T10:20:00.637Z,1005.94
2022-07-28T10:21:00.651Z,1005.92
2022-07-28T10:22:00.616Z,1005.91
2022-07-28T10:23:00.605Z,1005.90
2022-07-28T10:24:00.603Z,1005.92
2022-07-28T10:25:00.586Z,1005.92
2022-07-28T10:26:00.586Z,1005.91
2022-07-28T10:27:00.565Z,1005.89
2022-07-28T10:28:00.558Z,1005.91
2022-07-28T10:29:00.543Z,1005.87
2022-07-28T10:30:00.557Z,1005.85
2022-07-28T10:31:00.591Z,1005.85
2022-07-28T10:32:00.520Z,1005.82
2022-07-28T10:33:00.499Z,1005.83
2022-07-28T10:34:00.497Z,1005.82
2022-07-28T10:35:00.502Z,1005.84
2022-07-28T10:36:00.491Z,1005.84
2022-07-28T10:37:00.461Z,1005.82
2022-07-28T10:38:00.458Z,1005.79
2022-07-28T10:39:00.444Z,1005.78
2022-07-28T10:40:00.438Z,1005.79
2022-07-28T10:41:00.440Z,1005.75
2022-07-28T10:42:00.423Z,1005.72
2022-07-28T10:43:00.403Z,1005.79
2022-07-28T10:44:00.400Z,1005.76
2022-07-28T10:45:00.402Z,1005.77
2022-07-28T10:46:06.014Z,1005.77
2022-07-28T10:47:00.433Z,1005.80
2022-07-28T10:48:00.356Z,1005.81
2022-07-28T10:49:00.457Z,1005.80
2022-07-28T10:50:00.342Z,1005.81
2022-07-28T10:51:00.337Z,1005.78
2022-07-28T10:52:04.910Z,1005.77
2022-07-28T10:53:00.306Z,1005.73
2022-07-28T10:54:00.293Z,1005.74
2022-07-28T10:55:00.275Z,1005.74
2022-07-28T10:56:00.288Z,1005.74
2022-07-28T10:57:00.254Z,1005.74
2022-07-28T10:58:01.690Z,1005.74
2022-07-28T10:59:04.533Z,1005.76
2022-07-28T11:00:05.301Z,1005.76
2022-07-28T11:01:05.901Z,1005.75
2022-07-28T11:02:00.384Z,1005.74
2022-07-28T11:03:00.467Z,1005.76
2022-07-28T11:04:00.324Z,1005.76
2022-07-28T11:05:00.162Z,1005.75
2022-07-28T11:06:00.170Z,1005.74
2022-07-28T11:07:00.145Z,1005.66
2022-07-28T11:08:00.136Z,1005.65
2022-07-28T11:09:00.123Z,1005.64
2022-07-28T11:10:00.156Z,1005.69
2022-07-28T11:11:09.083Z,1005.67
2022-07-28T11:12:00.095Z,1005.68
2022-07-28T11:13:00.081Z,1005.69
2022-07-28T11:14:00.070Z,1005.65
2022-07-28T11:15:00.062Z,1005.62
2022-07-28T11:16:00.649Z,1005.61
2022-07-28T11:17:00.115Z,1005.57
2022-07-28T11:18:00.029Z,1005.55
2022-07-28T11:19:00.016Z,1005.58
2022-07-28T11:20:16.428Z,1005.58
2022-07-28T11:21:00.690Z,1005.58
2022-07-28T11:22:00.100Z,1005.56
2022-07-28T11:22:59.960Z,1005.55
2022-07-28T11:23:59.957Z,1005.53
2022-07-28T11:24:59.949Z,1005.51
2022-07-28T11:25:59.939Z,1005.52
2022-07-28T11:27:03.940Z,1005.51
2022-07-28T11:27:59.919Z,1005.55
2022-07-28T11:28:59.906Z,1005.54
2022-07-28T11:29:59.910Z,1005.53
2022-07-28T11:30:59.977Z,1005.52
2022-07-28T11:31:59.896Z,1005.51
2022-07-28T11:32:59.863Z,1005.50
2022-07-28T11:33:59.853Z,1005.46
2022-07-28T11:34:59.839Z,1005.42
2022-07-28T11:35:59.840Z,1005.50
2022-07-28T11:36:59.831Z,1005.54
2022-07-28T11:37:59.810Z,1005.51
2022-07-28T11:38:59.801Z,1005.49
2022-07-28T11:39:59.787Z,1005.48
2022-07-28T11:40:59.768Z,1005.50
2022-07-28T11:41:59.778Z,1005.50
2022-07-28T11:42:59.751Z,1005.44
2022-07-28T11:43:59.744Z,1005.44
2022-07-28T11:44:59.729Z,1005.43
2022-07-28T11:45:59.753Z,1005.39
2022-07-28T11:46:59.727Z,1005.38
2022-07-28T11:47:59.705Z,1005.35
2022-07-28T11:48:59.783Z,1005.35
2022-07-28T11:49:59.675Z,1005.31
2022-07-28T11:50:59.661Z,1005.31
2022-07-28T11:51:59.668Z,1005.27
2022-07-28T11:52:59.642Z,1005.27
2022-07-28T11:53:59.637Z,1005.28
2022-07-28T11:54:59.628Z,1005.27
2022-07-28T11:56:02.861Z,1005.27
2022-07-28T11:56:59.608Z,1005.23
2022-07-28T11:57:59.631Z,1005.24
2022-07-28T11:58:59.571Z,1005.22
2022-07-28T11:59:59.565Z,1005.21
2022-07-28T12:00:59.552Z,1005.21
2022-07-28T12:01:59.657Z,1005.18
2022-07-28T12:02:59.532Z,1005.16
2022-07-28T12:03:59.703Z,1005.16
2022-07-28T12:04:59.570Z,1005.15
2022-07-28T12:05:59.498Z,1005.16
2022-07-28T12:06:59.499Z,1005.16
2022-07-28T12:07:59.480Z,1005.14
2022-07-28T12:08:59.468Z,1005.10
2022-07-28T12:09:59.455Z,1005.10
2022-07-28T12:10:59.468Z,1005.12
2022-07-28T12:11:59.445Z,1005.13
2022-07-28T12:12:59.415Z,1005.10
2022-07-28T12:13:59.413Z,1005.07
2022-07-28T12:15:03.465Z,1005.08
2022-07-28T12:15:59.394Z,1005.06
2022-07-28T12:16:59.421Z,1005.08
2022-07-28T12:17:59.366Z,1005.10
2022-07-28T12:18:59.351Z,1005.09
2022-07-28T12:19:59.345Z,1005.10
2022-07-28T12:21:04.654Z,1005.11
2022-07-28T12:21:59.347Z,1005.11
2022-07-28T12:22:59.313Z,1005.13
2022-07-28T12:23:59.310Z,1005.09
2022-07-28T12:24:59.284Z,1005.06
2022-07-28T12:25:59.293Z,1005.03
2022-07-28T12:26:59.276Z,1005.03
2022-07-28T12:27:59.260Z,1005.03
2022-07-28T12:28:59.245Z,1005.04
2022-07-28T12:29:59.237Z,1005.03
2022-07-28T12:30:59.229Z,1005.01
2022-07-28T12:31:59.562Z,1004.99
2022-07-28T12:32:59.208Z,1004.96
2022-07-28T12:33:59.391Z,1004.93
2022-07-28T12:34:59.182Z,1004.97
2022-07-28T12:35:59.173Z,1004.95
2022-07-28T12:36:59.180Z,1004.96
2022-07-28T12:37:59.151Z,1004.99
2022-07-28T12:38:59.138Z,1004.98
2022-07-28T12:39:59.133Z,1004.97
2022-07-28T12:40:59.119Z,1004.97
2022-07-28T12:41:59.137Z,1004.94
2022-07-28T12:42:59.093Z,1004.93
2022-07-28T12:43:59.093Z,1004.92
2022-07-28T12:44:59.073Z,1004.90
2022-07-28T12:45:59.134Z,1004.90
2022-07-28T12:46:59.069Z,1004.88
2022-07-28T12:47:59.052Z,1004.89
2022-07-28T12:48:59.129Z,1004.91
2022-07-28T12:50:02.403Z,1004.90
2022-07-28T12:50:59.032Z,1004.88
2022-07-28T12:51:59.005Z,1004.85
2022-07-28T12:52:59.011Z,1004.85
2022-07-28T12:53:58.982Z,1004.85
2022-07-28T12:54:58.974Z,1004.85
2022-07-28T12:55:58.959Z,1004.84
2022-07-28T12:56:58.963Z,1004.81
2022-07-28T12:57:58.954Z,1004.82
2022-07-28T12:58:58.934Z,1004.75
2022-07-28T12:59:58.914Z,1004.75
2022-07-28T13:00:58.925Z,1004.79
2022-07-28T13:01:58.962Z,1004.78
2022-07-28T13:02:58.905Z,1004.79
2022-07-28T13:03:58.871Z,1004.77
2022-07-28T13:04:58.861Z,1004.78
2022-07-28T13:05:58.847Z,1004.78
2022-07-28T13:06:58.837Z,1004.78
2022-07-28T13:07:58.836Z,1004.75
2022-07-28T13:08:58.818Z,1004.71
2022-07-28T13:10:00.696Z,1004.67
2022-07-28T13:10:59.386Z,1004.69
2022-07-28T13:11:58.778Z,1004.66
2022-07-28T13:12:58.786Z,1004.66
2022-07-28T13:13:58.752Z,1004.67
2022-07-28T13:14:58.751Z,1004.65
2022-07-28T13:15:58.816Z,1004.61
2022-07-28T13:16:58.847Z,1004.59
2022-07-28T13:17:58.747Z,1004.57
2022-07-28T13:18:58.707Z,1004.59
2022-07-28T13:19:58.690Z,1004.59
2022-07-28T13:20:58.692Z,1004.58
2022-07-28T13:22:01.872Z,1004.57
2022-07-28T13:22:58.683Z,1004.56
2022-07-28T13:23:58.649Z,1004.60
2022-07-28T13:24:58.640Z,1004.60
2022-07-28T13:25:58.630Z,1004.59
2022-07-28T13:26:58.622Z,1004.56
2022-07-28T13:27:58.675Z,1004.54
2022-07-28T13:28:58.595Z,1004.53
2022-07-28T13:29:58.580Z,1004.54
2022-07-28T13:30:58.585Z,1004.49
2022-07-28T13:31:58.739Z,1004.55
2022-07-28T13:32:58.705Z,1004.50
2022-07-28T13:33:58.551Z,1004.55
2022-07-28T13:34:58.529Z,1004.58
2022-07-28T13:35:58.552Z,1004.52
2022-07-28T13:36:58.502Z,1004.53
2022-07-28T13:37:58.540Z,1004.52
2022-07-28T13:38:58.519Z,1004.53
2022-07-28T13:39:58.469Z,1004.49
2022-07-28T13:40:58.460Z,1004.39
2022-07-28T13:41:59.380Z,1004.45
2022-07-28T13:42:58.440Z,1004.48
2022-07-28T13:43:58.440Z,1004.47
2022-07-28T13:44:58.411Z,1004.45
2022-07-28T13:46:00.141Z,1004.45
2022-07-28T13:46:59.048Z,1004.49
2022-07-28T13:47:58.374Z,1004.47
2022-07-28T13:49:00.073Z,1004.45
2022-07-28T13:49:58.352Z,1004.42
2022-07-28T13:50:58.353Z,1004.42
2022-07-28T13:51:58.329Z,1004.40
2022-07-28T13:52:58.321Z,1004.38
2022-07-28T13:53:58.326Z,1004.37
2022-07-28T13:54:58.301Z,1004.36
2022-07-28T13:55:58.285Z,1004.39
2022-07-28T13:56:58.279Z,1004.34
2022-07-28T13:57:58.268Z,1004.35
2022-07-28T13:58:58.279Z,1004.34
2022-07-28T13:59:58.244Z,1004.35
2022-07-28T14:00:58.254Z,1004.35
2022-07-28T14:01:58.228Z,1004.33
2022-07-28T14:02:58.317Z,1004.31
2022-07-28T14:03:58.352Z,1004.34
2022-07-28T14:04:58.193Z,1004.31
2022-07-28T14:05:58.174Z,1004.28
2022-07-28T14:06:58.177Z,1004.27
2022-07-28T14:07:58.162Z,1004.28
2022-07-28T14:08:58.167Z,1004.29
2022-07-28T14:09:58.136Z,1004.27
2022-07-28T14:10:58.133Z,1004.24
2022-07-28T14:11:58.122Z,1004.21
2022-07-28T14:12:58.109Z,1004.21
2022-07-28T14:13:58.106Z,1004.23
2022-07-28T14:14:58.090Z,1004.24
2022-07-28T14:16:02.157Z,1004.24
2022-07-28T14:16:58.234Z,1004.25
2022-07-28T14:17:58.138Z,1004.21
2022-07-28T14:18:58.055Z,1004.22
2022-07-28T14:19:58.032Z,1004.23
2022-07-28T14:20:58.022Z,1004.23
2022-07-28T14:21:57.999Z,1004.20
2022-07-28T14:22:58.009Z,1004.22
2022-07-28T14:23:57.991Z,1004.20
2022-07-28T14:24:57.972Z,1004.19
2022-07-28T14:26:18.244Z,1004.17
2022-07-28T14:26:57.956Z,1004.17
2022-07-28T14:27:57.940Z,1004.15
2022-07-28T14:28:57.939Z,1004.14
2022-07-28T14:29:57.925Z,1004.17
2022-07-28T14:30:57.982Z,1004.14
2022-07-28T14:31:57.974Z,1004.13
2022-07-28T14:32:57.891Z,1004.15
2022-07-28T14:33:57.883Z,1004.13
2022-07-28T14:34:57.861Z,1004.10
2022-07-28T14:35:57.843Z,1004.09
2022-07-28T14:36:57.838Z,1004.07
2022-07-28T14:38:42.449Z,1004.09
2022-07-28T14:38:57.857Z,1004.08
2022-07-28T14:39:57.801Z,1004.08
2022-07-28T14:40:57.799Z,1004.09
2022-07-28T14:41:57.781Z,1004.13
2022-07-28T14:42:57.769Z,1004.17
2022-07-28T14:43:57.779Z,1004.16
2022-07-28T14:44:57.751Z,1004.16
2022-07-28T14:46:14.671Z,1004.15
2022-07-28T14:46:57.809Z,1004.10
2022-07-28T14:47:57.703Z,1004.09
2022-07-28T14:48:57.770Z,1004.08
2022-07-28T14:49:58.692Z,1004.07
2022-07-28T14:50:57.682Z,1004.09
2022-07-28T14:51:57.671Z,1004.11
2022-07-28T14:52:57.658Z,1004.14
2022-07-28T14:53:57.658Z,1004.13
2022-07-28T14:54:57.644Z,1004.07
2022-07-28T14:55:57.621Z,1004.03
2022-07-28T14:56:57.749Z,1004.03
2022-07-28T14:57:57.627Z,1004.01
2022-07-28T14:58:57.620Z,1003.99
2022-07-28T14:59:57.577Z,1004.00
2022-07-28T15:00:57.573Z,1003.99
2022-07-28T15:01:57.692Z,1003.97
2022-07-28T15:02:57.607Z,1003.99
2022-07-28T15:03:57.553Z,1003.97
2022-07-28T15:04:57.526Z,1003.98
2022-07-28T15:05:57.514Z,1003.94
2022-07-28T15:06:57.503Z,1003.91
2022-07-28T15:07:57.493Z,1003.90
2022-07-28T15:08:57.484Z,1003.90
2022-07-28T15:09:57.479Z,1003.90
2022-07-28T15:10:57.461Z,1003.91
2022-07-28T15:11:57.444Z,1003.90
2022-07-28T15:12:57.437Z,1003.88
2022-07-28T15:13:57.419Z,1003.86
2022-07-28T15:14:57.429Z,1003.86
2022-07-28T15:15:57.467Z,1003.83
2022-07-28T15:16:57.394Z,1003.82
2022-07-28T15:17:57.394Z,1003.82
2022-07-28T15:18:57.377Z,1003.81
2022-07-28T15:19:57.370Z,1003.82
2022-07-28T15:20:57.343Z,1003.79
2022-07-28T15:21:57.333Z,1003.80
2022-07-28T15:22:57.326Z,1003.82
2022-07-28T15:23:57.313Z,1003.79
2022-07-28T15:24:57.319Z,1003.81
2022-07-28T15:25:57.290Z,1003.79
2022-07-28T15:26:57.283Z,1003.80
2022-07-28T15:27:57.276Z,1003.80
2022-07-28T15:28:57.266Z,1003.76
2022-07-28T15:29:58.287Z,1003.74
2022-07-28T15:30:57.342Z,1003.73
2022-07-28T15:31:57.342Z,1003.76
2022-07-28T15:32:57.506Z,1003.73
2022-07-28T15:33:58.118Z,1003.70
2022-07-28T15:34:57.225Z,1003.69
2022-07-28T15:35:59.201Z,1003.68
2022-07-28T15:36:57.183Z,1003.66
2022-07-28T15:37:57.167Z,1003.65
2022-07-28T15:38:57.165Z,1003.66
2022-07-28T15:39:57.180Z,1003.66
2022-07-28T15:40:57.144Z,1003.62
2022-07-28T15:41:57.125Z,1003.62
2022-07-28T15:42:57.121Z,1003.58
2022-07-28T15:43:57.115Z,1003.57
2022-07-28T15:45:01.010Z,1003.58
2022-07-28T15:45:57.096Z,1003.60
2022-07-28T15:46:57.165Z,1003.59
2022-07-28T15:47:57.058Z,1003.58
2022-07-28T15:48:57.127Z,1003.60
2022-07-28T15:49:57.044Z,1003.61
2022-07-28T15:50:57.054Z,1003.61
2022-07-28T15:51:57.912Z,1003.59
2022-07-28T15:52:57.014Z,1003.65
2022-07-28T15:53:56.995Z,1003.61
2022-07-28T15:54:56.996Z,1003.59
2022-07-28T15:55:56.994Z,1003.61
2022-07-28T15:56:56.970Z,1003.59
2022-07-28T15:57:56.955Z,1003.58
2022-07-28T15:58:56.959Z,1003.60
2022-07-28T15:59:56.936Z,1003.57
2022-07-28T16:00:56.945Z,1003.59
2022-07-28T16:01:56.975Z,1003.57
2022-07-28T16:02:56.952Z,1003.57
2022-07-28T16:03:56.904Z,1003.55
2022-07-28T16:04:56.895Z,1003.57
2022-07-28T16:05:56.900Z,1003.57
2022-07-28T16:06:56.871Z,1003.55
2022-07-28T16:07:56.859Z,1003.56
2022-07-28T16:08:56.851Z,1003.54
2022-07-28T16:09:56.839Z,1003.55
2022-07-28T16:10:56.844Z,1003.52
2022-07-28T16:11:56.824Z,1003.50
2022-07-28T16:12:56.807Z,1003.51
2022-07-28T16:13:56.798Z,1003.49
2022-07-28T16:14:56.816Z,1003.48
2022-07-28T16:15:56.933Z,1003.51
2022-07-28T16:16:56.784Z,1003.49
2022-07-28T16:17:56.762Z,1003.50
2022-07-28T16:18:59.191Z,1003.51
2022-07-28T16:19:56.753Z,1003.50
2022-07-28T16:20:56.737Z,1003.47
2022-07-28T16:21:56.720Z,1003.49
2022-07-28T16:22:56.720Z,1003.48
2022-07-28T16:23:56.698Z,1003.49
2022-07-28T16:24:56.703Z,1003.44
2022-07-28T16:25:56.681Z,1003.45
2022-07-28T16:26:56.674Z,1003.49
2022-07-28T16:27:56.673Z,1003.45
2022-07-28T16:28:56.651Z,1003.47
2022-07-28T16:29:56.722Z,1003.47
2022-07-28T16:30:56.679Z,1003.47
2022-07-28T16:31:56.615Z,1003.50
2022-07-28T16:32:56.617Z,1003.48
2022-07-28T16:33:56.593Z,1003.47
2022-07-28T16:34:56.609Z,1003.45
2022-07-28T16:35:56.581Z,1003.43
2022-07-28T16:36:56.572Z,1003.43
2022-07-28T16:37:56.585Z,1003.42
2022-07-28T16:38:56.548Z,1003.43
2022-07-28T16:39:56.535Z,1003.41
2022-07-28T16:40:56.530Z,1003.40
2022-07-28T16:41:56.512Z,1003.40
2022-07-28T16:42:56.493Z,1003.38
2022-07-28T16:43:56.483Z,1003.37
2022-07-28T16:44:56.497Z,1003.34
2022-07-28T16:45:56.563Z,1003.36
2022-07-28T16:46:56.587Z,1003.36
2022-07-28T16:47:56.464Z,1003.36
2022-07-28T16:48:56.501Z,1003.35
2022-07-28T16:49:56.442Z,1003.33
2022-07-28T16:50:56.425Z,1003.34